Time;durP1;ratioP1;P1;durP2;ratioP2;P2;SDS_P1;SDS_P2;PMS_P1;PMS_P2;Temp;Humidity;BMP_temperature;BMP_pressure;BME280_temperature;BME280_humidity;BME280_pressure;Samples;Min_cycle;Max_cycle;Signal;HPM_P1;HPM_P2
2022/06/27 00:00:14;;;;;;;6.05;3.13;;;;;;;30.24;36.05;101611.38;5074940;28;20024;-70
2022/06/27 00:02:39;;;;;;;5.97;2.75;;;;;;;30.12;36.27;101617.75;5091857;28;20023;-70
2022/06/27 00:05:05;;;;;;;5.70;2.88;;;;;;;30.06;36.18;101618.25;5085902;28;20028;-70
2022/06/27 00:07:31;;;;;;;3.78;2.78;;;;;;;30.34;36.09;101622.25;5087098;28;20032;-70
2022/06/27 00:09:56;;;;;;;6.75;3.20;;;;;;;30.35;35.16;101623.09;5070235;28;20020;-71
2022/06/27 00:12:22;;;;;;;7.35;3.38;;;;;;;30.06;35.47;101626.34;5070934;28;20472;-70
2022/06/27 00:14:47;;;;;;;8.25;3.60;;;;;;;30.52;34.76;101622.63;5073966;28;20364;-73
2022/06/27 00:17:13;;;;;;;7.28;3.35;;;;;;;30.23;35.20;101615.03;5081679;28;20119;-72
2022/06/27 00:19:38;;;;;;;7.18;3.83;;;;;;;30.27;35.13;101621.91;5090259;28;20031;-73
2022/06/27 00:22:04;;;;;;;10.85;3.97;;;;;;;30.18;35.09;101628.03;5090801;28;20499;-73
2022/06/27 00:24:30;;;;;;;7.18;4.18;;;;;;;29.97;35.36;101619.00;5090167;28;20157;-73
2022/06/27 00:26:56;;;;;;;5.50;3.70;;;;;;;30.17;34.97;101625.47;5075621;28;20025;-73
2022/06/27 00:29:21;;;;;;;7.93;3.92;;;;;;;30.10;35.13;101625.09;5068834;28;20035;-73
2022/06/27 00:31:47;;;;;;;4.40;3.85;;;;;;;29.77;36.13;101626.78;5073996;28;20030;-73
2022/06/27 00:34:12;;;;;;;8.48;4.20;;;;;;;29.85;35.47;101624.38;5090598;28;20031;-73
2022/06/27 00:36:38;;;;;;;8.57;4.70;;;;;;;30.11;35.28;101627.66;5084544;28;20013;-73
2022/06/27 00:39:04;;;;;;;8.45;4.93;;;;;;;29.84;36.30;101633.44;5079004;28;20054;-73
2022/06/27 00:41:29;;;;;;;7.82;4.47;;;;;;;30.06;36.43;101639.81;5074115;28;20040;-73
2022/06/27 00:43:54;;;;;;;8.25;4.63;;;;;;;30.12;35.92;101652.81;5090541;28;20502;-71
2022/06/27 00:46:20;;;;;;;5.90;4.18;;;;;;;30.12;35.80;101656.34;5078870;28;20107;-73
2022/06/27 00:48:45;;;;;;;6.93;5.10;;;;;;;30.04;35.94;101658.81;5082752;28;20025;-73
2022/06/27 00:51:10;;;;;;;9.00;5.47;;;;;;;30.10;36.12;101654.75;5075266;28;20036;-70
2022/06/27 00:53:36;;;;;;;7.47;4.18;;;;;;;29.99;36.35;101655.59;5079517;28;20434;-71
2022/06/27 00:56:02;;;;;;;12.63;6.32;;;;;;;29.94;36.41;101669.47;5088695;28;20300;-70
2022/06/27 00:58:27;;;;;;;6.57;4.47;;;;;;;29.68;37.12;101667.94;5070446;28;20021;-71
2022/06/27 01:00:53;;;;;;;8.00;5.45;;;;;;;29.81;36.83;101657.91;5070991;28;20036;-70
2022/06/27 01:03:18;;;;;;;6.07;5.18;;;;;;;29.60;37.06;101655.91;5070444;28;20032;-70
2022/06/27 01:05:51;;;;;;;7.13;5.10;;;;;;;29.92;36.60;101655.28;5068826;28;20388;-74
2022/06/27 01:08:18;;;;;;;6.97;5.43;;;;;;;30.53;35.28;101642.34;5075858;28;20528;-73
2022/06/27 01:10:45;;;;;;;14.95;6.70;;;;;;;30.10;36.37;101646.66;5083273;28;20067;-72
2022/06/27 01:13:10;;;;;;;11.45;6.57;;;;;;;30.01;36.35;101650.13;5072504;28;20032;-73
2022/06/27 01:15:36;;;;;;;10.25;6.75;;;;;;;28.63;39.11;101649.78;5070389;28;20074;-71
2022/06/27 01:18:02;;;;;;;9.27;6.13;;;;;;;29.34;37.67;101638.25;5070369;28;20419;-73
2022/06/27 01:20:27;;;;;;;8.15;6.53;;;;;;;29.77;37.00;101640.25;5069649;28;20032;-72
2022/06/27 01:22:53;;;;;;;8.95;6.13;;;;;;;29.50;37.78;101646.84;5077449;28;20043;-72
2022/06/27 01:25:20;;;;;;;11.18;6.82;;;;;;;29.66;37.56;101638.41;5082943;28;20438;-72
2022/06/27 01:27:45;;;;;;;9.00;7.65;;;;;;;29.86;36.88;101644.97;5070138;28;20411;-72
2022/06/27 01:30:11;;;;;;;10.00;7.65;;;;;;;29.41;37.71;101652.94;5070321;28;20017;-73
2022/06/27 01:32:37;;;;;;;14.07;7.03;;;;;;;28.89;39.24;101655.94;5071121;28;20035;-72
2022/06/27 01:35:03;;;;;;;12.25;6.63;;;;;;;29.70;37.82;101656.06;5080316;28;20122;-73
2022/06/27 01:37:29;;;;;;;9.07;6.45;;;;;;;29.71;37.63;101646.16;5094213;28;20043;-72
2022/06/27 01:39:56;;;;;;;10.10;6.68;;;;;;;29.38;38.11;101654.03;5087988;28;20028;-72
2022/06/27 01:42:22;;;;;;;10.73;6.13;;;;;;;29.48;38.17;101645.25;5037949;28;20063;-73
2022/06/27 01:44:48;;;;;;;12.68;7.22;;;;;;;28.67;39.80;101645.91;5036332;28;20052;-72
2022/06/27 01:47:13;;;;;;;13.98;7.30;;;;;;;28.35;40.46;101649.09;5054456;28;20036;-73
2022/06/27 01:49:39;;;;;;;13.18;7.43;;;;;;;28.99;39.10;101649.84;5054062;28;20021;-72
2022/06/27 01:52:07;;;;;;;15.45;7.68;;;;;;;28.18;41.33;101650.34;5037368;28;20029;-73
2022/06/27 01:54:33;;;;;;;10.50;6.93;;;;;;;27.88;41.63;101648.81;5057150;28;20025;-72
2022/06/27 01:56:58;;;;;;;13.23;7.88;;;;;;;28.66;39.77;101640.63;5052583;28;20016;-73
2022/06/27 01:59:29;;;;;;;12.50;7.38;;;;;;;28.71;39.59;101638.47;5047002;28;20028;-72
2022/06/27 02:01:58;;;;;;;9.05;6.50;;;;;;;29.28;38.66;101632.38;5036095;28;20029;-73
2022/06/27 02:04:24;;;;;;;12.02;6.75;;;;;;;28.97;39.29;101623.06;5067353;28;20089;-73
2022/06/27 02:06:50;;;;;;;8.70;7.30;;;;;;;29.10;38.67;101606.84;5056288;28;20072;-72
2022/06/27 02:09:16;;;;;;;9.55;7.35;;;;;;;28.73;39.26;101601.56;5035527;28;20029;-73
2022/06/27 02:11:44;;;;;;;13.48;7.25;;;;;;;28.94;38.71;101599.94;5039892;28;20016;-73
2022/06/27 02:14:09;;;;;;;11.23;6.88;;;;;;;29.57;37.68;101605.00;5070385;28;20028;-72
2022/06/27 02:16:35;;;;;;;8.80;6.22;;;;;;;29.01;38.42;101599.47;5054569;28;20021;-72
2022/06/27 02:19:01;;;;;;;10.15;6.82;;;;;;;28.98;38.53;101610.47;5056355;28;20043;-72
2022/06/27 02:21:30;;;;;;;10.93;6.55;;;;;;;27.84;40.72;101608.88;5053033;28;20048;-72
2022/06/27 02:23:57;;;;;;;8.93;6.43;;;;;;;28.24;39.62;101598.81;5048877;28;20119;-72
2022/06/27 02:26:25;;;;;;;10.82;7.72;;;;;;;28.93;38.44;101609.00;5053188;28;20043;-72
2022/06/27 02:28:52;;;;;;;11.77;7.78;;;;;;;29.06;37.86;101608.06;5054978;28;20051;-72
2022/06/27 02:31:18;;;;;;;11.45;6.95;;;;;;;29.31;37.43;101601.66;5073567;28;20099;-72
2022/06/27 02:33:46;;;;;;;12.93;7.32;;;;;;;28.37;39.65;101600.59;5055179;28;20506;-72
2022/06/27 02:36:18;;;;;;;11.75;6.72;;;;;;;28.92;38.19;101596.50;5054687;28;20017;-72
2022/06/27 02:38:45;;;;;;;10.57;7.10;;;;;;;28.32;39.38;101602.78;5039661;28;20472;-72
2022/06/27 02:41:15;;;;;;;12.75;7.30;;;;;;;28.45;39.48;101598.19;5055889;28;20135;-72
2022/06/27 02:43:44;;;;;;;10.30;6.78;;;;;;;28.94;38.54;101586.47;5080330;28;20024;-73
2022/06/27 02:46:10;;;;;;;10.88;6.85;;;;;;;28.28;39.41;101594.09;5079471;28;20499;-72
2022/06/27 02:48:36;;;;;;;10.88;6.35;;;;;;;27.07;41.93;101596.25;5082226;28;20027;-72
2022/06/27 02:51:05;;;;;;;11.15;7.53;;;;;;;28.80;38.60;101596.56;5092527;28;20032;-72
2022/06/27 02:53:52;;;;;;;10.85;7.97;;;;;;;28.19;39.73;101592.94;5092745;28;20016;-72
2022/06/27 02:56:25;;;;;;;10.10;6.93;;;;;;;28.20;40.06;101594.63;5073274;28;20035;-72
2022/06/27 02:58:53;;;;;;;12.30;6.97;;;;;;;28.78;38.74;101577.84;5083638;28;20487;-73
2022/06/27 03:01:20;;;;;;;9.27;6.85;;;;;;;28.33;39.83;101574.91;5075139;28;20028;-73
2022/06/27 03:03:48;;;;;;;11.68;7.45;;;;;;;28.49;39.27;101572.81;5093524;28;20024;-72
2022/06/27 03:06:13;;;;;;;12.73;7.50;;;;;;;28.80;38.81;101565.16;5091418;28;20028;-72
2022/06/27 03:08:48;;;;;;;11.95;7.10;;;;;;;28.78;38.88;101556.34;5090264;28;20442;-72
2022/06/27 03:11:17;;;;;;;11.68;6.93;;;;;;;28.58;38.81;101561.38;5075050;28;20032;-72
2022/06/27 03:13:43;;;;;;;11.90;6.85;;;;;;;28.51;39.32;101560.13;5071268;28;20024;-72
2022/06/27 03:16:09;;;;;;;13.05;7.78;;;;;;;28.52;38.91;101556.47;5074012;28;20009;-72
2022/06/27 03:18:35;;;;;;;11.63;7.72;;;;;;;28.66;39.24;101562.66;5073738;28;20039;-73
2022/06/27 03:21:00;;;;;;;11.55;8.02;;;;;;;28.05;40.44;101574.25;5075231;28;20377;-73
2022/06/27 03:23:27;;;;;;;11.43;7.60;;;;;;;28.18;40.21;101564.34;5078970;28;20035;-73
2022/06/27 03:25:52;;;;;;;11.23;7.72;;;;;;;28.18;39.99;101558.97;5073042;28;20295;-73
2022/06/27 03:28:18;;;;;;;11.18;8.18;;;;;;;28.39;39.69;101561.88;5072062;28;20163;-74
2022/06/27 03:30:44;;;;;;;11.85;7.82;;;;;;;27.92;40.69;101567.06;5070781;28;20044;-75
2022/06/27 03:33:09;;;;;;;11.95;8.20;;;;;;;27.87;40.82;101560.31;5071018;28;20033;-75
2022/06/27 03:35:35;;;;;;;13.52;7.65;;;;;;;27.98;39.89;101562.22;5072179;28;20020;-73
2022/06/27 03:38:00;;;;;;;13.57;8.07;;;;;;;27.84;40.90;101572.13;5071796;28;20016;-73
2022/06/27 03:40:26;;;;;;;12.38;7.72;;;;;;;27.90;40.62;101565.44;5066784;28;20398;-73
2022/06/27 03:42:51;;;;;;;9.68;7.38;;;;;;;27.80;40.69;101572.47;5058026;28;20059;-73
2022/06/27 03:45:17;;;;;;;13.23;7.50;;;;;;;27.82;40.73;101579.44;5033736;28;20035;-73
2022/06/27 03:47:50;;;;;;;11.85;8.73;;;;;;;28.22;39.73;101565.84;5034285;28;20432;-73
2022/06/27 03:50:20;;;;;;;11.75;8.18;;;;;;;27.86;40.71;101564.84;5052507;28;20017;-73
2022/06/27 03:52:45;;;;;;;11.38;7.43;;;;;;;27.86;40.88;101554.09;5070576;28;20039;-73
2022/06/27 03:55:12;;;;;;;10.70;7.72;;;;;;;27.76;41.26;101553.00;5054029;28;20020;-73
2022/06/27 03:57:39;;;;;;;12.18;8.15;;;;;;;27.90;40.79;101547.53;5040518;28;20435;-74
2022/06/27 04:00:09;;;;;;;12.65;7.90;;;;;;;27.95;40.66;101546.34;5056199;28;20029;-73
2022/06/27 04:02:35;;;;;;;12.50;7.97;;;;;;;27.89;41.28;101548.47;5035201;28;20021;-73
2022/06/27 04:05:02;;;;;;;12.73;8.05;;;;;;;27.84;41.17;101547.94;5034190;28;20139;-73
2022/06/27 04:07:27;;;;;;;12.05;7.95;;;;;;;27.73;41.15;101558.63;5037268;28;20017;-73
2022/06/27 04:09:53;;;;;;;12.45;8.50;;;;;;;28.18;40.58;101558.09;5052756;28;20028;-73
2022/06/27 04:12:18;;;;;;;12.32;8.43;;;;;;;28.37;40.27;101558.47;5062044;28;20056;-74
2022/06/27 04:14:43;;;;;;;15.65;8.55;;;;;;;28.27;40.48;101558.28;5049777;28;20048;-74
2022/06/27 04:17:09;;;;;;;13.77;7.68;;;;;;;28.01;41.30;101567.41;5071577;28;20476;-73
2022/06/27 04:19:34;;;;;;;13.15;8.27;;;;;;;28.49;40.23;101567.44;5050870;28;20027;-73
2022/06/27 04:21:59;;;;;;;11.77;8.38;;;;;;;28.48;40.48;101565.75;5053056;28;20119;-74
2022/06/27 04:24:25;;;;;;;14.80;8.23;;;;;;;28.89;39.28;101564.47;5042787;28;20021;-73
2022/06/27 04:26:50;;;;;;;12.57;8.32;;;;;;;28.47;39.95;101574.75;5043722;28;20029;-73
2022/06/27 04:29:15;;;;;;;9.70;7.45;;;;;;;28.66;39.08;101563.53;5034167;28;20056;-73
2022/06/27 04:31:41;;;;;;;12.00;7.85;;;;;;;28.29;40.53;101546.56;5034563;28;20043;-73
2022/06/27 04:34:06;;;;;;;9.95;7.70;;;;;;;28.65;39.49;101526.00;5051197;28;20059;-74
2022/06/27 04:36:32;;;;;;;8.25;6.97;;;;;;;28.71;38.93;101512.06;5071484;28;20046;-73
2022/06/27 04:38:58;;;;;;;9.30;6.90;;;;;;;29.13;38.63;101515.09;5046406;28;20055;-73
2022/06/27 04:41:25;;;;;;;6.97;6.15;;;;;;;28.85;39.03;101514.56;5050990;28;20045;-74
2022/06/27 04:43:55;;;;;;;8.52;6.47;;;;;;;28.48;39.58;101520.03;5039173;28;20029;-73
2022/06/27 04:46:21;;;;;;;14.82;7.20;;;;;;;28.69;39.35;101516.72;5047835;28;20070;-74
2022/06/27 04:48:48;;;;;;;9.98;6.60;;;;;;;28.59;39.33;101513.81;5048423;28;20032;-73
2022/06/27 04:51:14;;;;;;;8.93;6.32;;;;;;;28.75;39.08;101508.16;5052667;28;20082;-73
2022/06/27 04:53:40;;;;;;;12.15;6.95;;;;;;;28.63;39.56;101503.69;5047562;28;20059;-74
2022/06/27 04:56:08;;;;;;;12.02;6.20;;;;;;;28.68;39.76;101498.88;5036358;28;20052;-73
2022/06/27 04:58:34;;;;;;;9.43;6.55;;;;;;;28.69;39.48;101503.28;5052885;28;20024;-73
2022/06/27 05:01:00;;;;;;;8.68;6.45;;;;;;;28.49;39.91;101507.44;5052443;28;20075;-74
2022/06/27 05:03:26;;;;;;;10.00;6.68;;;;;;;28.61;39.85;101501.97;5070095;28;20028;-73
2022/06/27 05:05:52;;;;;;;8.82;6.22;;;;;;;28.45;39.78;101506.81;5052766;28;20366;-73
2022/06/27 05:08:18;;;;;;;9.48;6.85;;;;;;;28.58;39.86;101507.59;5066232;28;20078;-74
2022/06/27 05:10:43;;;;;;;9.77;6.07;;;;;;;28.36;40.10;101515.59;5057644;28;20059;-73
2022/06/27 05:13:09;;;;;;;14.70;6.45;;;;;;;28.39;40.81;101528.78;5047989;28;20119;-73
2022/06/27 05:15:37;;;;;;;7.50;6.57;;;;;;;28.60;40.06;101526.28;5073550;28;20055;-74
2022/06/27 05:18:02;;;;;;;9.60;6.63;;;;;;;28.89;39.99;101532.19;5037606;28;20021;-73
2022/06/27 05:20:30;;;;;;;9.18;6.85;;;;;;;29.42;38.14;101514.66;5038809;28;20029;-73
2022/06/27 05:22:56;;;;;;;11.45;6.60;;;;;;;29.39;38.38;101506.84;5037398;28;20037;-74
2022/06/27 05:25:21;;;;;;;9.05;6.85;;;;;;;29.05;38.45;101531.84;5070874;28;20029;-74
2022/06/27 05:27:47;;;;;;;11.20;6.68;;;;;;;28.41;39.84;101541.13;5056026;28;20073;-74
2022/06/27 05:30:13;;;;;;;13.40;7.10;;;;;;;29.21;38.10;101544.09;5068790;28;20032;-74
2022/06/27 05:32:39;;;;;;;12.27;7.82;;;;;;;29.25;38.19;101535.72;5062201;28;20024;-74
2022/06/27 05:35:06;;;;;;;12.68;7.65;;;;;;;28.73;39.08;101558.53;5051183;28;20078;-74
2022/06/27 05:37:31;;;;;;;9.45;7.13;;;;;;;28.75;38.98;101572.72;5049694;28;20059;-74
2022/06/27 05:39:57;;;;;;;11.43;6.32;;;;;;;28.52;39.48;101566.34;5044850;28;20477;-74
2022/06/27 05:42:23;;;;;;;13.60;7.78;;;;;;;28.90;38.65;101571.53;5036751;28;20016;-74
2022/06/27 05:44:48;;;;;;;14.07;8.38;;;;;;;28.58;39.74;101572.13;5043034;28;20036;-74
2022/06/27 05:47:14;;;;;;;10.65;7.63;;;;;;;28.81;39.63;101577.66;5054406;28;20112;-74
2022/06/27 05:49:39;;;;;;;14.63;7.97;;;;;;;29.02;39.04;101585.91;5037026;28;20491;-74
2022/06/27 05:52:05;;;;;;;14.15;8.90;;;;;;;29.24;39.36;101585.13;5041854;28;20374;-74
2022/06/27 05:54:32;;;;;;;16.80;8.50;;;;;;;28.71;40.35;101579.31;5049599;28;20024;-74
2022/06/27 05:56:58;;;;;;;12.32;8.18;;;;;;;28.94;39.70;101589.16;5055366;28;20025;-74
2022/06/27 05:59:24;;;;;;;13.18;8.82;;;;;;;28.57;40.28;101591.91;5053728;28;20032;-74
2022/06/27 06:01:51;;;;;;;14.50;9.38;;;;;;;29.02;39.74;101620.03;5053950;28;20035;-74
2022/06/27 06:04:17;;;;;;;12.07;8.45;;;;;;;29.15;39.83;101607.31;5056639;28;20012;-74
2022/06/27 06:06:43;;;;;;;12.23;8.13;;;;;;;29.11;40.12;101609.41;5043905;28;20032;-74
2022/06/27 06:09:11;;;;;;;10.82;8.32;;;;;;;29.34;39.20;101616.72;5040514;28;20086;-74
2022/06/27 06:11:37;;;;;;;14.65;8.85;;;;;;;28.40;40.51;101616.53;5054127;28;20016;-74
2022/06/27 06:14:03;;;;;;;12.15;7.82;;;;;;;29.43;39.09;101621.41;5054889;28;20028;-74
2022/06/27 06:16:29;;;;;;;10.25;8.00;;;;;;;29.20;39.42;101615.91;5056659;28;20036;-74
2022/06/27 06:18:56;;;;;;;12.38;8.48;;;;;;;29.61;38.93;101609.16;5046824;28;20032;-74
2022/06/27 06:21:23;;;;;;;12.52;8.00;;;;;;;29.25;39.56;101608.38;5055783;28;20055;-74
2022/06/27 06:23:51;;;;;;;13.05;8.38;;;;;;;28.85;40.16;101597.97;5046769;28;20473;-74
2022/06/27 06:26:17;;;;;;;14.43;8.57;;;;;;;28.60;40.83;101597.09;5048940;28;20021;-74
2022/06/27 06:28:50;;;;;;;11.57;7.45;;;;;;;29.42;39.30;101608.91;5047764;28;20116;-74
2022/06/27 06:31:22;;;;;;;14.15;8.35;;;;;;;29.91;38.65;101621.22;5045332;28;20032;-74
2022/06/27 06:33:53;;;;;;;9.85;7.72;;;;;;;29.56;38.90;101632.91;5056155;28;20082;-73
2022/06/27 06:36:21;;;;;;;13.68;7.82;;;;;;;28.80;40.64;101640.47;5062980;28;20152;-73
2022/06/27 06:38:47;;;;;;;10.65;8.00;;;;;;;27.83;41.91;101656.34;5066286;28;20024;-73
2022/06/27 06:41:12;;;;;;;13.05;7.60;;;;;;;28.34;41.06;101652.75;5054916;28;20111;-74
2022/06/27 06:43:38;;;;;;;13.32;7.10;;;;;;;28.80;40.30;101644.97;5034838;28;20549;-74
2022/06/27 06:46:03;;;;;;;11.35;7.05;;;;;;;28.58;40.45;101652.78;5035326;28;20119;-74
2022/06/27 06:48:30;;;;;;;10.05;6.93;;;;;;;28.88;40.03;101659.59;5037006;28;20393;-74
2022/06/27 06:50:55;;;;;;;10.60;7.18;;;;;;;28.85;39.84;101642.81;5034138;28;20473;-74
2022/06/27 06:53:21;;;;;;;10.90;7.00;;;;;;;28.87;40.67;101620.22;4988718;28;20096;-74
2022/06/27 06:55:48;;;;;;;12.30;8.05;;;;;;;29.86;38.02;101596.47;5042455;28;20370;-74
2022/06/27 06:58:13;;;;;;;13.00;7.43;;;;;;;30.17;37.85;101594.00;5040701;28;20503;-74
2022/06/27 07:00:39;;;;;;;11.20;7.82;;;;;;;28.49;41.49;101583.56;5041174;28;20020;-73
2022/06/27 07:03:06;;;;;;;10.38;7.40;;;;;;;29.29;39.31;101582.06;5035635;28;20032;-75
2022/06/27 07:05:33;;;;;;;12.30;7.40;;;;;;;29.69;39.02;101588.84;5058185;28;20035;-73
2022/06/27 07:08:00;;;;;;;8.50;6.10;;;;;;;29.77;38.67;101573.78;5048556;28;20040;-74
2022/06/27 07:10:26;;;;;;;10.55;7.55;;;;;;;29.86;38.34;101563.28;5036842;28;20449;-73
2022/06/27 07:12:52;;;;;;;12.23;7.35;;;;;;;30.60;36.75;101552.69;5071234;28;20056;-73
2022/06/27 07:15:17;;;;;;;13.60;7.68;;;;;;;30.08;38.10;101565.09;5062825;28;20476;-74
2022/06/27 07:17:46;;;;;;;11.10;7.35;;;;;;;30.11;38.01;101568.38;5052776;28;20035;-74
2022/06/27 07:20:13;;;;;;;10.25;7.70;;;;;;;30.52;36.80;101574.06;5050555;28;20081;-74
2022/06/27 07:22:40;;;;;;;11.05;7.63;;;;;;;29.84;38.04;101568.78;5054707;28;20038;-72
2022/06/27 07:25:06;;;;;;;9.85;7.60;;;;;;;30.51;36.73;101575.03;5053562;28;20036;-74
2022/06/27 07:27:33;;;;;;;11.25;6.75;;;;;;;30.31;37.30;101589.28;5069410;28;20066;-74
2022/06/27 07:29:59;;;;;;;12.25;7.95;;;;;;;29.80;37.71;101596.94;5038603;28;20021;-74
2022/06/27 07:32:25;;;;;;;9.23;7.97;;;;;;;29.39;38.60;101614.53;5068602;28;20039;-73
2022/06/27 07:34:51;;;;;;;12.35;7.72;;;;;;;30.31;36.72;101606.34;5070968;28;20491;-73
2022/06/27 07:37:18;;;;;;;11.48;7.55;;;;;;;29.92;37.47;101596.00;5060753;28;20025;-73
2022/06/27 07:39:43;;;;;;;13.55;7.60;;;;;;;29.86;37.33;101601.00;5032233;28;20037;-73
2022/06/27 07:42:09;;;;;;;10.82;7.72;;;;;;;28.92;38.92;101611.78;5055976;28;20056;-73
2022/06/27 07:44:34;;;;;;;13.15;8.05;;;;;;;28.75;39.53;101621.13;5038228;28;20035;-73
2022/06/27 07:47:03;;;;;;;11.25;8.40;;;;;;;28.18;40.75;101623.47;5053573;28;20025;-72
2022/06/27 07:49:30;;;;;;;11.13;7.78;;;;;;;29.28;39.01;101616.22;5053951;28;20472;-72
2022/06/27 07:51:55;;;;;;;14.25;8.63;;;;;;;29.09;39.69;101615.88;5052077;28;20440;-73
2022/06/27 07:54:21;;;;;;;15.45;8.05;;;;;;;29.03;39.90;101616.34;5038204;28;20035;-73
2022/06/27 07:56:47;;;;;;;11.65;8.07;;;;;;;29.51;39.13;101608.19;5050722;28;20016;-73
2022/06/27 07:59:13;;;;;;;12.20;7.82;;;;;;;29.59;38.50;101615.66;5040454;28;20039;-73
2022/06/27 08:01:40;;;;;;;11.73;7.90;;;;;;;29.08;39.54;101643.75;5037143;28;20044;-73
2022/06/27 08:04:07;;;;;;;12.70;8.73;;;;;;;29.03;40.39;101635.19;5034664;28;20511;-73
2022/06/27 08:06:33;;;;;;;11.15;7.60;;;;;;;29.44;39.16;101623.09;5041203;28;20040;-72
2022/06/27 08:09:06;;;;;;;13.30;8.13;;;;;;;30.08;38.37;101616.31;5047363;28;20029;-73
2022/06/27 08:11:35;;;;;;;11.80;7.70;;;;;;;30.04;38.45;101625.63;5038198;28;20052;-73
2022/06/27 08:14:07;;;;;;;12.60;8.10;;;;;;;29.95;38.57;101643.34;5035561;28;20511;-73
2022/06/27 08:16:35;;;;;;;10.63;7.80;;;;;;;29.43;39.08;101621.41;5041154;28;20025;-74
2022/06/27 08:19:02;;;;;;;10.60;7.60;;;;;;;29.68;38.51;101614.94;5045198;28;20027;-73
2022/06/27 08:21:30;;;;;;;14.07;7.90;;;;;;;30.39;36.74;101605.69;5055141;28;20028;-73
2022/06/27 08:23:58;;;;;;;11.63;7.78;;;;;;;30.49;36.71;101613.91;5047126;28;20091;-73
2022/06/27 08:26:24;;;;;;;11.63;7.88;;;;;;;30.91;36.77;101614.88;5047115;28;20024;-73
2022/06/27 08:28:52;;;;;;;10.73;7.70;;;;;;;29.94;38.26;101610.19;5041504;28;20299;-73
2022/06/27 08:31:18;;;;;;;11.45;7.72;;;;;;;31.08;36.13;101612.63;5050952;28;20056;-73
2022/06/27 08:33:46;;;;;;;11.55;7.78;;;;;;;31.26;36.43;101608.31;5065221;28;20032;-73
2022/06/27 08:36:15;;;;;;;13.48;7.57;;;;;;;31.46;35.56;101611.13;5031092;28;20111;-73
2022/06/27 08:38:50;;;;;;;13.35;7.60;;;;;;;31.69;35.48;101624.53;5051220;28;20107;-73
2022/06/27 08:41:23;;;;;;;11.50;7.22;;;;;;;31.38;35.46;101643.34;5054935;28;20564;-73
2022/06/27 08:43:53;;;;;;;12.10;7.45;;;;;;;31.51;35.18;101644.00;5077736;28;20479;-73
2022/06/27 08:46:19;;;;;;;12.18;7.45;;;;;;;30.06;38.15;101655.97;5085060;28;20033;-73
2022/06/27 08:48:47;;;;;;;13.10;8.38;;;;;;;30.63;36.46;101654.94;5083710;28;20024;-73
2022/06/27 08:51:13;;;;;;;12.30;7.13;;;;;;;29.58;38.78;101668.66;5081441;28;20134;-73
2022/06/27 08:53:39;;;;;;;9.45;7.13;;;;;;;29.98;38.02;101674.59;5069137;28;20120;-73
2022/06/27 08:56:09;;;;;;;11.13;6.53;;;;;;;30.20;37.01;101666.53;5072501;28;20119;-73
2022/06/27 08:58:35;;;;;;;14.85;6.47;;;;;;;29.80;37.24;101672.38;5068931;28;20498;-72
2022/06/27 09:01:01;;;;;;;7.32;5.65;;;;;;;30.45;36.31;101664.56;5068791;28;20031;-73
2022/06/27 09:03:27;;;;;;;9.57;5.63;;;;;;;30.38;36.36;101666.03;5084516;28;20028;-73
2022/06/27 09:05:57;;;;;;;12.98;6.43;;;;;;;28.09;39.01;101677.84;5087401;28;20028;-72
2022/06/27 09:08:33;;;;;;;11.82;6.50;;;;;;;29.53;36.90;101687.00;5091710;28;20051;-73
2022/06/27 09:11:00;;;;;;;10.27;6.63;;;;;;;30.64;35.44;101677.41;5079128;28;20551;-73
2022/06/27 09:13:27;;;;;;;9.50;6.22;;;;;;;30.35;36.11;101677.03;5068638;28;20102;-73
2022/06/27 09:16:03;;;;;;;11.27;7.13;;;;;;;30.67;35.89;101681.69;5085880;28;20020;-73
2022/06/27 09:18:35;;;;;;;11.75;7.35;;;;;;;30.17;37.16;101680.25;5089522;28;20032;-73
2022/06/27 09:21:07;;;;;;;12.13;7.10;;;;;;;31.24;35.51;101660.75;5073898;28;20465;-73
2022/06/27 09:23:51;;;;;;;8.57;6.57;;;;;;;31.22;35.22;101650.06;5080904;28;20032;-73
2022/06/27 09:26:16;;;;;;;12.38;6.95;;;;;;;30.47;35.92;101657.19;5070280;28;20104;-73
2022/06/27 09:28:51;;;;;;;10.57;6.82;;;;;;;31.10;35.97;101656.53;5072180;28;20174;-73
2022/06/27 09:31:25;;;;;;;11.93;7.75;;;;;;;31.43;35.41;101662.72;5075494;28;20028;-73
2022/06/27 09:34:19;;;;;;;15.15;8.45;;;;;;;31.96;35.14;101654.50;5070145;28;20032;-74
2022/06/27 09:36:50;;;;;;;10.73;7.30;;;;;;;31.35;36.01;101667.94;5074245;28;20031;-73
2022/06/27 09:39:22;;;;;;;13.30;7.55;;;;;;;31.44;35.48;101669.84;5075949;28;20024;-73
2022/06/27 09:41:54;;;;;;;14.70;7.75;;;;;;;31.80;35.35;101670.38;5079312;28;20044;-73
2022/06/27 09:44:22;;;;;;;10.45;7.10;;;;;;;32.19;34.33;101681.38;5082765;28;20028;-73
2022/06/27 09:46:54;;;;;;;11.88;7.00;;;;;;;31.56;34.46;101670.59;5073117;28;20028;-73
2022/06/27 09:49:21;;;;;;;10.23;6.23;;;;;;;31.41;35.29;101670.13;5080585;28;20479;-73
2022/06/27 09:51:48;;;;;;;10.85;6.55;;;;;;;32.11;33.36;101664.97;5074352;28;20299;-73
2022/06/27 09:54:21;;;;;;;8.88;6.15;;;;;;;32.17;33.26;101667.13;5071115;28;20103;-74
2022/06/27 09:56:47;;;;;;;9.00;5.50;;;;;;;32.21;33.12;101665.03;5072773;28;20021;-72
2022/06/27 09:59:13;;;;;;;10.30;5.90;;;;;;;32.08;33.24;101667.91;5079717;28;20115;-73
2022/06/27 10:01:43;;;;;;;12.48;6.40;;;;;;;32.47;32.59;101657.25;5079461;28;20051;-73
2022/06/27 10:04:10;;;;;;;9.60;6.25;;;;;;;32.51;32.75;101658.69;5084627;28;20042;-73
2022/06/27 10:06:39;;;;;;;14.70;6.30;;;;;;;32.71;33.01;101658.75;5090922;28;20495;-74
2022/06/27 10:09:08;;;;;;;10.48;6.38;;;;;;;32.92;32.14;101662.19;5087126;28;20035;-74
2022/06/27 10:11:35;;;;;;;13.55;7.90;;;;;;;32.34;33.32;101662.06;5094523;28;20081;-74
2022/06/27 10:14:21;;;;;;;10.90;7.63;;;;;;;32.16;33.89;101665.41;5085773;28;20031;-73
2022/06/27 10:16:54;;;;;;;12.38;6.78;;;;;;;32.62;33.47;101657.72;5072927;28;20073;-74
2022/06/27 10:19:20;;;;;;;12.20;7.22;;;;;;;32.43;33.69;101677.47;5073184;28;20070;-73
2022/06/27 10:21:47;;;;;;;13.20;7.00;;;;;;;31.77;34.55;101676.03;5075751;28;20055;-73
2022/06/27 10:24:18;;;;;;;11.50;7.45;;;;;;;31.89;33.99;101680.38;5074381;28;20082;-73
2022/06/27 10:26:48;;;;;;;11.55;6.78;;;;;;;31.62;34.69;101676.38;5074777;28;20029;-73
2022/06/27 10:29:42;;;;;;;16.38;7.05;;;;;;;31.62;34.29;101670.97;5072037;28;20696;-73
2022/06/27 10:32:28;;;;;;;13.20;7.35;;;;;;;32.09;33.70;101670.47;5068405;28;20485;-72
2022/06/27 10:34:53;;;;;;;11.18;6.78;;;;;;;31.42;33.82;101666.41;5073383;28;20056;-73
2022/06/27 10:37:24;;;;;;;9.55;6.18;;;;;;;31.71;34.08;101663.06;5071992;28;20495;-73
2022/06/27 10:39:50;;;;;;;13.23;6.82;;;;;;;31.49;34.37;101662.22;5071991;28;20032;-73
2022/06/27 10:42:43;;;;;;;9.95;6.47;;;;;;;32.10;33.39;101666.78;5071926;28;20032;-73
2022/06/27 10:45:21;;;;;;;11.73;6.45;;;;;;;31.85;33.36;101668.13;5069841;28;20032;-72
2022/06/27 10:47:52;;;;;;;10.57;5.13;;;;;;;32.31;32.45;101657.78;5043093;28;20035;-73
2022/06/27 10:50:22;;;;;;;7.65;4.40;;;;;;;31.84;32.86;101671.81;5054523;28;20131;-73
2022/06/27 10:52:48;;;;;;;9.60;5.38;;;;;;;31.21;34.10;101664.56;5053670;28;20028;-73
2022/06/27 10:55:31;;;;;;;12.77;6.20;;;;;;;32.68;32.22;101654.44;5046063;28;20121;-73
2022/06/27 10:57:57;;;;;;;;;;;;;;;32.20;33.38;101656.03;5031000;28;20029;-73
2022/06/27 11:00:42;;;;;;;11.10;6.47;;;;;;;32.28;33.23;101656.19;5057484;28;20347;-73
2022/06/27 11:03:31;;;;;;;15.55;8.50;;;;;;;31.28;35.54;101662.19;5053487;28;20047;-73
2022/06/27 11:06:03;;;;;;;13.15;8.38;;;;;;;31.84;34.70;101663.69;5042389;28;20480;-73
2022/06/27 11:08:28;;;;;;;15.18;8.73;;;;;;;31.59;35.24;101663.13;5054126;28;20555;-73
2022/06/27 11:10:54;;;;;;;10.07;8.18;;;;;;;31.55;35.32;101656.25;5034669;28;20025;-73
2022/06/27 11:13:44;;;;;;;13.73;8.73;;;;;;;32.35;34.16;101664.63;5034696;28;20028;-73
2022/06/27 11:16:16;;;;;;;17.33;9.35;;;;;;;31.52;34.99;101675.44;5034169;28;20440;-73
2022/06/27 11:18:44;;;;;;;16.42;9.82;;;;;;;32.03;34.65;101683.72;5037135;28;20016;-73
2022/06/27 11:21:15;;;;;;;11.55;8.23;;;;;;;31.15;35.54;101684.00;5045805;28;20033;-73